Time;durP1;ratioP1;P1;durP2;ratioP2;P2;SDS_P1;SDS_P2;PMS_P1;PMS_P2;Temp;Humidity;BMP_temperature;BMP_pressure;BME280_temperature;BME280_humidity;BME280_pressure;Samples;Min_cycle;Max_cycle;Signal;HPM_P1;HPM_P2
2024/01/03 00:01:27;;;;;;;0.20;0.00;;;;;;;;;;4985378;28;20405;-83
2024/01/03 00:03:56;;;;;;;0.20;0.00;;;;;;;;;;4989247;28;20042;-84
2024/01/03 00:06:22;;;;;;;0.20;0.03;;;;;;;;;;4972845;28;20049;-85
2024/01/03 00:08:48;;;;;;;0.20;0.00;;;;;;;;;;4983890;28;20077;-86
2024/01/03 00:11:20;;;;;;;0.20;0.00;;;;;;;;;;4990406;28;20053;-87
2024/01/03 00:13:49;;;;;;;;;;;;;;;;;;4989499;28;20116;-84
2024/01/03 00:16:18;;;;;;;0.20;0.00;;;;;;;;;;5004498;28;20393;-87
2024/01/03 00:18:51;;;;;;;0.20;0.00;;;;;;;;;;4988618;28;20124;-85
2024/01/03 00:21:27;;;;;;;0.20;0.00;;;;;;;;;;4986462;28;20064;-87
2024/01/03 00:24:14;;;;;;;1.65;1.55;;;;;;;;;;4984518;28;20502;-84
2024/01/03 00:26:40;;;;;;;0.20;0.10;;;;;;;;;;4973727;28;20057;-85
2024/01/03 00:29:26;;;;;;;0.20;0.00;;;;;;;;;;4989034;28;20073;-84
2024/01/03 00:31:53;;;;;;;0.20;0.00;;;;;;;;;;4991580;28;20049;-83
2024/01/03 00:34:22;;;;;;;0.20;0.10;;;;;;;;;;4974625;28;20045;-86
2024/01/03 00:36:48;;;;;;;0.20;0.10;;;;;;;;;;4989268;28;20072;-85
2024/01/03 00:39:15;;;;;;;0.20;0.00;;;;;;;;;;4990788;28;20034;-87
2024/01/03 00:41:41;;;;;;;0.20;0.10;;;;;;;;;;4988728;28;20498;-84
2024/01/03 00:44:07;;;;;;;0.20;0.03;;;;;;;;;;4987438;28;20038;-85
2024/01/03 00:46:36;;;;;;;0.20;0.10;;;;;;;;;;4988870;28;20038;-84
2024/01/03 00:49:02;;;;;;;0.20;0.10;;;;;;;;;;4989545;28;20473;-83
2024/01/03 00:51:28;;;;;;;0.57;0.57;;;;;;;;;;5006481;28;20160;-84
2024/01/03 00:53:54;;;;;;;0.20;0.10;;;;;;;;;;5007475;28;21129;-84
2024/01/03 00:56:20;;;;;;;0.20;0.10;;;;;;;;;;4973952;28;20038;-83
2024/01/03 00:58:46;;;;;;;0.20;0.10;;;;;;;;;;4990225;28;20717;-84
2024/01/03 01:01:12;;;;;;;0.20;0.10;;;;;;;;;;4991299;28;20087;-83
2024/01/03 01:03:38;;;;;;;0.20;0.00;;;;;;;;;;4989928;28;20076;-84
2024/01/03 01:06:05;;;;;;;0.20;0.00;;;;;;;;;;4989399;28;20052;-84
2024/01/03 01:08:31;;;;;;;0.20;0.00;;;;;;;;;;4990258;28;20398;-85
2024/01/03 01:10:57;;;;;;;0.20;0.10;;;;;;;;;;4991917;28;20060;-86
2024/01/03 01:13:23;;;;;;;0.20;0.10;;;;;;;;;;4988243;28;20449;-84
2024/01/03 01:15:49;;;;;;;0.20;0.10;;;;;;;;;;5006641;28;20038;-83
2024/01/03 01:18:18;;;;;;;0.20;0.00;;;;;;;;;;4989871;28;20038;-83
2024/01/03 01:20:44;;;;;;;0.20;0.13;;;;;;;;;;4989773;28;20037;-86
2024/01/03 01:23:10;;;;;;;0.20;0.10;;;;;;;;;;4990088;28;20586;-84
2024/01/03 01:25:36;;;;;;;0.20;0.00;;;;;;;;;;4975503;28;20115;-81
2024/01/03 01:28:02;;;;;;;0.20;0.10;;;;;;;;;;5008345;28;20034;-85
2024/01/03 01:30:30;;;;;;;0.20;0.00;;;;;;;;;;5007991;28;20034;-87
2024/01/03 01:32:56;;;;;;;0.20;0.10;;;;;;;;;;4988945;28;20544;-83
2024/01/03 01:35:22;;;;;;;0.20;0.10;;;;;;;;;;4990284;28;20034;-88
2024/01/03 01:37:48;;;;;;;0.20;0.05;;;;;;;;;;4990602;28;20414;-87
2024/01/03 01:40:15;;;;;;;0.20;0.00;;;;;;;;;;4993773;28;20114;-84
2024/01/03 01:42:44;;;;;;;0.20;0.10;;;;;;;;;;4976323;28;20529;-86
2024/01/03 01:45:19;;;;;;;0.20;0.00;;;;;;;;;;4992957;28;20573;-85
2024/01/03 01:47:45;;;;;;;0.20;0.03;;;;;;;;;;4977347;28;20046;-85
2024/01/03 01:50:12;;;;;;;0.20;0.00;;;;;;;;;;4995653;28;20037;-84
2024/01/03 01:52:39;;;;;;;0.20;0.00;;;;;;;;;;4993901;28;20046;-84
2024/01/03 01:55:05;;;;;;;0.20;0.20;;;;;;;;;;4991566;28;20052;-86
2024/01/03 01:57:34;;;;;;;0.20;0.10;;;;;;;;;;5011492;28;20034;-86
2024/01/03 02:00:02;;;;;;;0.20;0.10;;;;;;;;;;4990694;28;20065;-82
2024/01/03 02:02:28;;;;;;;0.20;0.00;;;;;;;;;;4983024;28;20050;-83
2024/01/03 02:04:54;;;;;;;0.20;0.00;;;;;;;;;;5007026;28;20125;-86
2024/01/03 02:07:25;;;;;;;0.20;0.00;;;;;;;;;;4992189;28;20042;-87
2024/01/03 02:09:52;;;;;;;0.20;0.00;;;;;;;;;;4989434;28;20073;-86
2024/01/03 02:12:25;;;;;;;0.20;0.00;;;;;;;;;;4974033;28;20046;-82
2024/01/03 02:14:51;;;;;;;0.20;0.10;;;;;;;;;;4986918;28;20072;-88
2024/01/03 02:17:18;;;;;;;2.08;1.38;;;;;;;;;;4994054;28;20033;-87
2024/01/03 02:19:44;;;;;;;0.20;0.00;;;;;;;;;;5011477;28;20750;-87
2024/01/03 02:22:16;;;;;;;0.20;0.00;;;;;;;;;;4991858;28;20592;-86
2024/01/03 02:24:42;;;;;;;0.20;0.00;;;;;;;;;;4991521;28;20049;-83
2024/01/03 02:27:10;;;;;;;0.20;0.00;;;;;;;;;;4991802;28;20038;-85
2024/01/03 02:29:37;;;;;;;0.20;0.00;;;;;;;;;;4991996;28;20817;-85
2024/01/03 02:32:06;;;;;;;0.20;0.10;;;;;;;;;;4991795;28;20125;-86
2024/01/03 02:34:32;;;;;;;0.20;0.00;;;;;;;;;;4976511;28;20045;-83
2024/01/03 02:36:58;;;;;;;0.20;0.00;;;;;;;;;;4992340;28;20041;-83
2024/01/03 02:39:27;;;;;;;0.20;0.10;;;;;;;;;;4976055;28;20074;-88
2024/01/03 02:41:53;;;;;;;0.20;0.00;;;;;;;;;;4984823;28;20100;-82
2024/01/03 02:44:23;;;;;;;0.20;0.10;;;;;;;;;;4990870;28;20152;-83
2024/01/03 02:46:49;;;;;;;0.20;0.10;;;;;;;;;;5008327;28;20029;-86
2024/01/03 02:49:15;;;;;;;0.20;0.00;;;;;;;;;;4992345;28;20131;-84
2024/01/03 02:51:41;;;;;;;0.20;0.00;;;;;;;;;;4992788;28;20045;-86
2024/01/03 02:54:18;;;;;;;0.20;0.10;;;;;;;;;;5006652;28;20042;-88
2024/01/03 02:56:44;;;;;;;0.20;0.10;;;;;;;;;;4991640;28;20206;-86
2024/01/03 02:59:10;;;;;;;0.20;0.00;;;;;;;;;;4991272;28;20044;-85
2024/01/03 03:01:37;;;;;;;0.20;0.10;;;;;;;;;;4991972;28;20088;-86
2024/01/03 03:04:03;;;;;;;0.20;0.10;;;;;;;;;;4992781;28;20033;-81
2024/01/03 03:06:29;;;;;;;0.20;0.10;;;;;;;;;;4992300;28;20049;-83
2024/01/03 03:08:55;;;;;;;0.20;0.05;;;;;;;;;;4974431;28;20046;-86
2024/01/03 03:11:26;;;;;;;0.20;0.10;;;;;;;;;;4981450;28;20050;-84
2024/01/03 03:13:52;;;;;;;0.20;0.00;;;;;;;;;;4991423;28;20038;-87
2024/01/03 03:16:19;;;;;;;0.20;0.00;;;;;;;;;;4976044;28;20038;-84
2024/01/03 03:18:45;;;;;;;0.20;0.00;;;;;;;;;;5010027;28;20045;-87
2024/01/03 03:21:11;;;;;;;0.20;0.00;;;;;;;;;;4992197;28;20037;-85
2024/01/03 03:23:37;;;;;;;0.20;0.00;;;;;;;;;;5007903;28;20034;-85
2024/01/03 03:26:03;;;;;;;0.20;0.10;;;;;;;;;;4991038;28;20091;-85
2024/01/03 03:28:32;;;;;;;0.20;0.00;;;;;;;;;;4968871;28;20445;-82
2024/01/03 03:31:02;;;;;;;0.20;0.00;;;;;;;;;;4970280;28;20057;-85
2024/01/03 03:33:32;;;;;;;0.20;0.00;;;;;;;;;;4993310;28;20049;-88
2024/01/03 03:35:58;;;;;;;0.20;0.00;;;;;;;;;;4991727;28;20502;-85
2024/01/03 03:38:27;;;;;;;0.20;0.00;;;;;;;;;;4992546;28;20045;-80
2024/01/03 03:40:53;;;;;;;0.20;0.10;;;;;;;;;;4992682;28;20143;-88
2024/01/03 03:43:21;;;;;;;0.20;0.10;;;;;;;;;;4991416;28;20076;-86
2024/01/03 03:45:47;;;;;;;0.20;0.10;;;;;;;;;;4974512;28;20197;-82
2024/01/03 03:48:13;;;;;;;0.20;0.10;;;;;;;;;;4987863;28;20042;-88
2024/01/03 03:50:42;;;;;;;0.20;0.10;;;;;;;;;;4974670;28;20046;-88
2024/01/03 03:53:10;;;;;;;0.20;0.10;;;;;;;;;;4974174;28;20054;-86
2024/01/03 03:55:40;;;;;;;0.20;0.10;;;;;;;;;;4990210;28;20041;-88
2024/01/03 03:58:09;;;;;;;0.20;0.10;;;;;;;;;;4979760;28;20478;-88
2024/01/03 04:00:39;;;;;;;0.20;0.10;;;;;;;;;;4973365;28;20053;-85
2024/01/03 04:03:13;;;;;;;0.20;0.00;;;;;;;;;;4991092;28;20100;-87
2024/01/03 04:05:39;;;;;;;0.20;0.00;;;;;;;;;;4991571;28;20604;-84
2024/01/03 04:08:05;;;;;;;0.20;0.10;;;;;;;;;;5008607;28;20461;-85
2024/01/03 04:10:32;;;;;;;0.20;0.00;;;;;;;;;;4980666;28;20042;-86
2024/01/03 04:13:04;;;;;;;0.20;0.10;;;;;;;;;;4992527;28;20091;-87
2024/01/03 04:15:35;;;;;;;0.20;0.00;;;;;;;;;;4986675;28;20042;-85
2024/01/03 04:18:05;;;;;;;0.20;0.10;;;;;;;;;;5010490;28;20049;-89
2024/01/03 04:20:31;;;;;;;0.20;0.10;;;;;;;;;;4991663;28;20054;-82
2024/01/03 04:23:02;;;;;;;0.20;0.00;;;;;;;;;;4992194;28;20069;-84
2024/01/03 04:25:37;;;;;;;0.20;0.10;;;;;;;;;;4990439;28;20050;-87
2024/01/03 04:28:06;;;;;;;0.20;0.00;;;;;;;;;;4984003;28;20045;-85
2024/01/03 04:30:32;;;;;;;0.20;0.00;;;;;;;;;;5006272;28;20038;-88
2024/01/03 04:32:59;;;;;;;0.20;0.10;;;;;;;;;;5006137;28;20041;-87
2024/01/03 04:35:27;;;;;;;0.20;0.10;;;;;;;;;;4991340;28;20113;-88
2024/01/03 04:38:02;;;;;;;0.20;0.10;;;;;;;;;;5009174;28;20038;-87
2024/01/03 04:40:29;;;;;;;0.20;0.10;;;;;;;;;;4991761;28;20042;-87
2024/01/03 04:42:58;;;;;;;0.20;0.03;;;;;;;;;;4991826;28;20038;-87
2024/01/03 04:45:24;;;;;;;0.20;0.10;;;;;;;;;;4974491;28;20038;-86
2024/01/03 04:47:50;;;;;;;0.20;0.10;;;;;;;;;;5007542;28;20077;-85
2024/01/03 04:50:17;;;;;;;0.20;0.10;;;;;;;;;;5005589;28;20183;-84
2024/01/03 04:52:46;;;;;;;0.75;0.73;;;;;;;;;;4985029;28;20092;-85
2024/01/03 04:55:12;;;;;;;0.20;0.00;;;;;;;;;;4987175;28;20038;-87
2024/01/03 04:57:38;;;;;;;0.20;0.17;;;;;;;;;;4990404;28;20044;-85
2024/01/03 05:00:05;;;;;;;0.20;0.05;;;;;;;;;;4989889;28;20046;-86
2024/01/03 05:02:34;;;;;;;0.20;0.00;;;;;;;;;;4993165;28;20048;-89
2024/01/03 05:05:05;;;;;;;0.20;0.10;;;;;;;;;;4983818;28;20057;-85
2024/01/03 05:07:37;;;;;;;0.55;0.55;;;;;;;;;;5003346;28;20423;-87
2024/01/03 05:10:03;;;;;;;0.20;0.10;;;;;;;;;;4992339;28;20042;-87
2024/01/03 05:12:29;;;;;;;0.20;0.00;;;;;;;;;;4989160;28;20034;-85
2024/01/03 05:14:59;;;;;;;0.20;0.10;;;;;;;;;;4996428;28;20048;-87
2024/01/03 05:17:26;;;;;;;0.20;0.10;;;;;;;;;;4969216;28;20049;-87
2024/01/03 05:19:52;;;;;;;0.20;0.10;;;;;;;;;;4992629;28;20180;-89
2024/01/03 05:22:18;;;;;;;0.20;0.00;;;;;;;;;;4995597;28;20046;-85
2024/01/03 05:24:49;;;;;;;0.20;0.10;;;;;;;;;;4993209;28;20080;-85
2024/01/03 05:27:20;;;;;;;0.20;0.10;;;;;;;;;;5013583;28;20037;-85
2024/01/03 05:29:47;;;;;;;0.20;0.10;;;;;;;;;;4978868;28;20069;-87
2024/01/03 05:32:20;;;;;;;0.20;0.10;;;;;;;;;;4985220;28;20096;-86
2024/01/03 05:34:46;;;;;;;0.20;0.03;;;;;;;;;;4974374;28;20096;-84
2024/01/03 05:37:15;;;;;;;0.20;0.10;;;;;;;;;;4981960;28;20660;-85
2024/01/03 05:39:41;;;;;;;0.20;0.10;;;;;;;;;;4978027;28;20041;-83
2024/01/03 05:42:10;;;;;;;0.20;0.10;;;;;;;;;;5011716;28;20037;-85
2024/01/03 05:44:39;;;;;;;0.20;0.10;;;;;;;;;;4993078;28;20038;-88
2024/01/03 05:47:05;;;;;;;0.20;0.10;;;;;;;;;;4994397;28;20088;-85
2024/01/03 05:49:31;;;;;;;0.20;0.10;;;;;;;;;;4971950;28;20120;-87
2024/01/03 05:52:01;;;;;;;0.20;0.00;;;;;;;;;;4992769;28;20037;-86
2024/01/03 05:54:33;;;;;;;0.20;0.13;;;;;;;;;;4994475;28;20563;-84
2024/01/03 05:57:00;;;;;;;0.30;0.20;;;;;;;;;;4995915;28;20045;-86
2024/01/03 05:59:27;;;;;;;0.20;0.00;;;;;;;;;;4994746;28;20038;-88
2024/01/03 06:01:53;;;;;;;0.20;0.00;;;;;;;;;;4992005;28;20077;-86
2024/01/03 06:04:19;;;;;;;0.20;0.08;;;;;;;;;;4975017;28;20067;-93
2024/01/03 06:06:48;;;;;;;0.25;0.20;;;;;;;;;;4978088;28;20103;-84
2024/01/03 06:09:16;;;;;;;0.63;0.28;;;;;;;;;;4980325;28;20620;-86
2024/01/03 06:11:42;;;;;;;0.20;0.00;;;;;;;;;;4993934;28;20037;-85
2024/01/03 06:14:21;;;;;;;0.20;0.10;;;;;;;;;;4993685;28;20399;-88
2024/01/03 06:16:49;;;;;;;0.20;0.10;;;;;;;;;;4993324;28;20053;-89
2024/01/03 06:19:15;;;;;;;0.20;0.00;;;;;;;;;;4977246;28;20493;-81
2024/01/03 06:21:41;;;;;;;0.20;0.10;;;;;;;;;;5010934;28;20042;-85
2024/01/03 06:24:07;;;;;;;0.20;0.10;;;;;;;;;;4991414;28;20618;-83
2024/01/03 06:26:36;;;;;;;0.20;0.10;;;;;;;;;;4990071;28;20124;-87
2024/01/03 06:29:09;;;;;;;0.20;0.10;;;;;;;;;;4977281;28;20041;-85
2024/01/03 06:31:35;;;;;;;0.20;0.10;;;;;;;;;;4990214;28;20049;-84
2024/01/03 06:34:03;;;;;;;0.20;0.00;;;;;;;;;;4973490;28;20042;-84
2024/01/03 06:36:32;;;;;;;0.20;0.20;;;;;;;;;;4994850;28;20465;-88
2024/01/03 06:38:59;;;;;;;0.20;0.10;;;;;;;;;;4973819;28;20081;-86
2024/01/03 06:41:25;;;;;;;0.20;0.10;;;;;;;;;;4991020;28;20506;-89
2024/01/03 06:43:51;;;;;;;0.20;0.10;;;;;;;;;;4989918;28;20141;-84
2024/01/03 06:46:24;;;;;;;0.20;0.00;;;;;;;;;;4992476;28;20065;-87
2024/01/03 06:48:53;;;;;;;0.20;0.00;;;;;;;;;;4993652;28;20128;-86
2024/01/03 06:51:33;;;;;;;0.20;0.00;;;;;;;;;;4993273;28;20046;-85
2024/01/03 06:54:12;;;;;;;0.20;0.00;;;;;;;;;;4995402;28;20042;-88
2024/01/03 06:56:38;;;;;;;0.20;0.15;;;;;;;;;;4976747;28;20054;-87
2024/01/03 06:59:04;;;;;;;0.20;0.10;;;;;;;;;;4988067;28;20124;-85
2024/01/03 07:01:31;;;;;;;0.28;0.17;;;;;;;;;;4993430;28;20565;-85
2024/01/03 07:04:01;;;;;;;0.20;0.10;;;;;;;;;;4992307;28;20042;-85
2024/01/03 07:06:31;;;;;;;0.20;0.10;;;;;;;;;;4988167;28;20073;-88
2024/01/03 07:08:57;;;;;;;0.20;0.10;;;;;;;;;;4993410;28;20117;-87
2024/01/03 07:11:23;;;;;;;0.20;0.10;;;;;;;;;;4988250;28;20049;-86
2024/01/03 07:13:55;;;;;;;0.20;0.00;;;;;;;;;;4990958;28;20061;-87
2024/01/03 07:16:27;;;;;;;0.20;0.10;;;;;;;;;;4993994;28;20494;-88
2024/01/03 07:18:53;;;;;;;;;;;;;;;;;;4992880;28;20133;-86
2024/01/03 07:21:26;;;;;;;0.20;0.00;;;;;;;;;;4986811;28;20289;-88
2024/01/03 07:24:01;;;;;;;0.20;0.10;;;;;;;;;;4988043;28;20041;-86
2024/01/03 07:26:30;;;;;;;0.20;0.00;;;;;;;;;;4977978;28;20478;-89
2024/01/03 07:29:02;;;;;;;0.38;0.15;;;;;;;;;;4990215;28;20069;-86
2024/01/03 07:31:28;;;;;;;0.20;0.10;;;;;;;;;;4986541;28;20498;-86
2024/01/03 07:34:02;;;;;;;0.20;0.00;;;;;;;;;;4989506;28;20516;-87
2024/01/03 07:36:34;;;;;;;0.20;0.08;;;;;;;;;;4977395;28;20054;-87
2024/01/03 07:39:07;;;;;;;0.20;0.10;;;;;;;;;;4980563;28;20095;-87
2024/01/03 07:41:35;;;;;;;0.20;0.00;;;;;;;;;;4989596;28;20084;-88
2024/01/03 07:44:04;;;;;;;0.20;0.00;;;;;;;;;;4991031;28;20041;-84
2024/01/03 07:46:30;;;;;;;0.90;0.90;;;;;;;;;;4991155;28;20041;-84
2024/01/03 07:49:07;;;;;;;0.20;0.10;;;;;;;;;;4986541;28;20517;-85
2024/01/03 07:51:38;;;;;;;0.20;0.00;;;;;;;;;;4986812;28;20038;-87
2024/01/03 07:54:04;;;;;;;0.20;0.10;;;;;;;;;;5007268;28;20108;-85
2024/01/03 07:56:36;;;;;;;0.20;0.10;;;;;;;;;;4974146;28;20046;-89
2024/01/03 07:59:11;;;;;;;1.80;0.30;;;;;;;;;;5000524;28;20494;-84
2024/01/03 08:01:40;;;;;;;0.20;0.10;;;;;;;;;;5005321;28;20546;-86
2024/01/03 08:04:06;;;;;;;0.20;0.00;;;;;;;;;;4986918;28;20129;-87
2024/01/03 08:06:35;;;;;;;0.20;0.05;;;;;;;;;;4986907;28;20186;-87
2024/01/03 08:09:01;;;;;;;0.20;0.10;;;;;;;;;;4990872;28;20046;-88
2024/01/03 08:11:28;;;;;;;0.20;0.00;;;;;;;;;;5005349;28;20083;-85
2024/01/03 08:13:55;;;;;;;0.25;0.15;;;;;;;;;;4974293;28;20034;-86
2024/01/03 08:16:21;;;;;;;0.20;0.10;;;;;;;;;;4990490;28;20033;-86
2024/01/03 08:18:56;;;;;;;0.20;0.10;;;;;;;;;;4975874;28;20042;-88
2024/01/03 08:21:22;;;;;;;0.20;0.00;;;;;;;;;;4989406;28;20041;-85
2024/01/03 08:23:57;;;;;;;0.20;0.05;;;;;;;;;;4990602;28;20107;-87
2024/01/03 08:26:31;;;;;;;0.20;0.00;;;;;;;;;;4974252;28;20037;-86
2024/01/03 08:29:16;;;;;;;0.20;0.08;;;;;;;;;;5007651;28;20121;-84
2024/01/03 08:31:42;;;;;;;0.20;0.00;;;;;;;;;;4980839;28;20038;-87
2024/01/03 08:34:08;;;;;;;0.20;0.00;;;;;;;;;;4989367;28;20030;-86
2024/01/03 08:36:44;;;;;;;0.20;0.10;;;;;;;;;;4972991;28;20046;-86
2024/01/03 08:39:20;;;;;;;0.20;0.10;;;;;;;;;;4988159;28;20034;-85
2024/01/03 08:41:57;;;;;;;0.20;0.00;;;;;;;;;;4989072;28;20073;-86
2024/01/03 08:44:24;;;;;;;0.30;0.20;;;;;;;;;;4983155;28;20081;-87
2024/01/03 08:46:50;;;;;;;3.40;1.85;;;;;;;;;;4972921;28;20053;-86
2024/01/03 08:49:21;;;;;;;0.20;0.10;;;;;;;;;;4979815;28;20053;-83
2024/01/03 08:51:50;;;;;;;0.20;0.10;;;;;;;;;;4992233;28;20529;-87
2024/01/03 08:54:22;;;;;;;0.20;0.10;;;;;;;;;;4994453;28;20056;-88
2024/01/03 08:57:09;;;;;;;0.20;0.10;;;;;;;;;;4985413;28;20042;-87
2024/01/03 08:59:38;;;;;;;0.20;0.00;;;;;;;;;;4975108;28;20045;-88
2024/01/03 09:02:25;;;;;;;0.20;0.10;;;;;;;;;;4993874;28;20081;-85
2024/01/03 09:04:50;;;;;;;0.20;0.00;;;;;;;;;;4994506;28;20048;-88
2024/01/03 09:07:19;;;;;;;0.20;0.00;;;;;;;;;;4993632;28;20096;-88
2024/01/03 09:09:57;;;;;;;0.20;0.05;;;;;;;;;;4994216;28;20077;-88
2024/01/03 09:12:35;;;;;;;0.20;0.10;;;;;;;;;;4971251;28;20770;-86
2024/01/03 09:15:04;;;;;;;0.20;0.10;;;;;;;;;;4982694;28;20084;-87
2024/01/03 09:17:42;;;;;;;0.20;0.00;;;;;;;;;;4975155;28;20422;-89
2024/01/03 09:20:17;;;;;;;0.20;0.00;;;;;;;;;;4994854;28;20094;-86
2024/01/03 09:22:43;;;;;;;0.20;0.00;;;;;;;;;;4994689;28;20065;-87
2024/01/03 09:25:09;;;;;;;0.30;0.20;;;;;;;;;;4992039;28;20038;-88
2024/01/03 09:27:39;;;;;;;0.20;0.00;;;;;;;;;;4994686;28;20506;-88
2024/01/03 09:30:06;;;;;;;0.20;0.10;;;;;;;;;;4994249;28;20120;-88
2024/01/03 09:32:35;;;;;;;0.20;0.00;;;;;;;;;;4993017;28;20053;-87
2024/01/03 09:35:01;;;;;;;0.20;0.00;;;;;;;;;;4981664;28;20049;-87
2024/01/03 09:37:30;;;;;;;0.20;0.03;;;;;;;;;;4996152;28;20069;-86
2024/01/03 09:39:59;;;;;;;0.20;0.10;;;;;;;;;;4992839;28;20494;-84
2024/01/03 09:42:33;;;;;;;1.50;0.17;;;;;;;;;;4994640;28;20120;-86
2024/01/03 09:45:13;;;;;;;0.20;0.00;;;;;;;;;;4995713;28;20041;-86
2024/01/03 09:47:45;;;;;;;0.20;0.00;;;;;;;;;;4990212;28;20038;-88
2024/01/03 09:50:19;;;;;;;0.20;0.10;;;;;;;;;;4994024;28;20053;-84
2024/01/03 09:52:45;;;;;;;0.20;0.10;;;;;;;;;;4992495;28;20030;-83
2024/01/03 09:55:11;;;;;;;1.17;0.45;;;;;;;;;;4992261;28;20046;-85
2024/01/03 09:57:47;;;;;;;0.20;0.10;;;;;;;;;;4990796;28;20045;-88
2024/01/03 10:00:13;;;;;;;0.20;0.00;;;;;;;;;;5004499;28;20050;-85
2024/01/03 10:02:39;;;;;;;0.20;0.10;;;;;;;;;;4993838;28;20038;-86
2024/01/03 10:05:19;;;;;;;0.65;0.55;;;;;;;;;;4996231;28;20038;-86
2024/01/03 10:07:55;;;;;;;0.40;0.30;;;;;;;;;;4991610;28;20490;-86
2024/01/03 10:10:31;;;;;;;0.20;0.10;;;;;;;;;;4988472;28;20034;-87
2024/01/03 10:13:14;;;;;;;0.20;0.10;;;;;;;;;;4986446;28;20034;-90
2024/01/03 10:16:05;;;;;;;0.20;0.10;;;;;;;;;;5007649;28;20053;-90
2024/01/03 10:18:44;;;;;;;0.20;0.10;;;;;;;;;;4991839;28;20387;-88
2024/01/03 10:21:18;;;;;;;0.20;0.10;;;;;;;;;;4971639;28;20038;-85
2024/01/03 10:24:06;;;;;;;0.20;0.10;;;;;;;;;;4989739;28;20494;-83
2024/01/03 10:26:33;;;;;;;0.20;0.10;;;;;;;;;;5005704;28;20054;-88
2024/01/03 10:29:12;;;;;;;0.20;0.00;;;;;;;;;;4991614;28;20081;-86
2024/01/03 10:31:41;;;;;;;0.20;0.10;;;;;;;;;;4990152;28;20049;-85
2024/01/03 10:34:15;;;;;;;0.20;0.10;;;;;;;;;;4989067;28;20045;-89
2024/01/03 10:36:45;;;;;;;0.20;0.10;;;;;;;;;;4989118;28;20061;-83
2024/01/03 10:39:17;;;;;;;0.20;0.10;;;;;;;;;;4990071;28;20545;-84
2024/01/03 10:41:47;;;;;;;0.20;0.08;;;;;;;;;;4991432;28;20088;-86
2024/01/03 10:44:14;;;;;;;0.20;0.10;;;;;;;;;;4990715;28;20037;-85
2024/01/03 10:46:55;;;;;;;0.20;0.10;;;;;;;;;;4991622;28;20057;-85
2024/01/03 10:49:27;;;;;;;0.20;0.10;;;;;;;;;;4989983;28;20057;-87
2024/01/03 10:51:57;;;;;;;0.20;0.20;;;;;;;;;;4976275;28;20509;-85
2024/01/03 10:54:30;;;;;;;0.20;0.10;;;;;;;;;;4919710;28;20050;-87
2024/01/03 10:56:56;;;;;;;0.20;0.10;;;;;;;;;;4970870;28;20046;-84
2024/01/03 10:59:28;;;;;;;0.20;0.10;;;;;;;;;;4972556;28;20038;-85
2024/01/03 11:02:11;;;;;;;0.20;0.03;;;;;;;;;;4985364;28;20525;-87
2024/01/03 11:04:39;;;;;;;;;;;;;;;;;;4972748;28;20305;-86
2024/01/03 11:07:10;;;;;;;;;;;;;;;;;;4974928;28;19928;-85
2024/01/03 11:09:42;;;;;;;0.20;0.00;;;;;;;;;;4967213;28;19961;-87
2024/01/03 11:12:15;;;;;;;0.20;0.10;;;;;;;;;;4968789;28;20046;-87
2024/01/03 11:14:46;;;;;;;0.20;0.00;;;;;;;;;;4971155;28;20149;-87
2024/01/03 11:17:12;;;;;;;0.20;0.10;;;;;;;;;;4976454;28;20030;-85
2024/01/03 11:19:38;;;;;;;0.20;0.10;;;;;;;;;;4949630;28;20042;-85
2024/01/03 11:22:08;;;;;;;0.20;0.10;;;;;;;;;;4971386;28;20034;-85
2024/01/03 11:24:49;;;;;;;0.20;0.10;;;;;;;;;;4966896;28;20042;-85
2024/01/03 11:27:21;;;;;;;0.20;0.10;;;;;;;;;;4970961;28;20034;-84
2024/01/03 11:29:51;;;;;;;0.20;0.10;;;;;;;;;;4958179;28;20101;-87
2024/01/03 11:32:46;;;;;;;0.20;0.10;;;;;;;;;;4972253;28;20133;-85
2024/01/03 11:35:12;;;;;;;0.20;0.10;;;;;;;;;;4955250;28;20598;-88
2024/01/03 11:37:46;;;;;;;0.20;0.10;;;;;;;;;;4956115;28;20074;-88
2024/01/03 11:40:19;;;;;;;0.20;0.08;;;;;;;;;;4957237;28;20080;-85
2024/01/03 11:42:56;;;;;;;0.20;0.08;;;;;;;;;;4985938;28;20251;-85
2024/01/03 11:45:28;;;;;;;0.20;0.08;;;;;;;;;;4985819;28;20113;-87
2024/01/03 11:48:04;;;;;;;0.30;0.30;;;;;;;;;;4953714;28;20034;-85
2024/01/03 11:50:31;;;;;;;0.20;0.10;;;;;;;;;;4955370;28;20184;-84
2024/01/03 11:53:00;;;;;;;0.20;0.00;;;;;;;;;;4956241;28;20046;-88
2024/01/03 11:55:35;;;;;;;0.20;0.00;;;;;;;;;;4968040;28;20034;-87
2024/01/03 11:58:07;;;;;;;0.20;0.10;;;;;;;;;;4968011;28;20044;-87
2024/01/03 12:00:33;;;;;;;0.90;0.77;;;;;;;;;;4969626;28;20046;-85
2024/01/03 12:02:59;;;;;;;0.20;0.10;;;;;;;;;;4970051;28;20042;-87
2024/01/03 12:05:28;;;;;;;0.32;0.32;;;;;;;;;;4951211;28;20125;-87
2024/01/03 12:08:14;;;;;;;0.20;0.10;;;;;;;;;;4987564;28;20410;-88
2024/01/03 12:10:46;;;;;;;0.20;0.10;;;;;;;;;;4959834;28;20042;-88
2024/01/03 12:13:12;;;;;;;;;;;;;;;;;;4971283;28;20030;-85
2024/01/03 12:15:44;;;;;;;0.20;0.00;;;;;;;;;;4979007;28;19928;-84
2024/01/03 12:18:10;;;;;;;0.20;0.10;;;;;;;;;;4958180;28;20038;-88
2024/01/03 12:20:36;;;;;;;0.20;0.10;;;;;;;;;;4955416;28;20189;-87
2024/01/03 12:23:06;;;;;;;0.20;0.10;;;;;;;;;;4972784;28;20046;-87
2024/01/03 12:25:32;;;;;;;0.20;0.10;;;;;;;;;;4969804;28;20057;-85
2024/01/03 12:27:58;;;;;;;0.20;0.00;;;;;;;;;;4971373;28;20058;-87
2024/01/03 12:30:37;;;;;;;0.20;0.10;;;;;;;;;;4957302;28;20042;-88
2024/01/03 12:33:11;;;;;;;0.20;0.10;;;;;;;;;;4973142;28;20491;-87
2024/01/03 12:36:03;;;;;;;0.20;0.00;;;;;;;;;;4960455;28;20856;-86
2024/01/03 12:38:32;;;;;;;0.20;0.00;;;;;;;;;;4940935;28;20039;-85
2024/01/03 12:41:01;;;;;;;0.20;0.03;;;;;;;;;;4938209;28;20059;-88
2024/01/03 12:43:30;;;;;;;0.20;0.00;;;;;;;;;;4953416;28;20163;-87
2024/01/03 12:45:58;;;;;;;0.20;0.10;;;;;;;;;;4965588;28;20053;-87
2024/01/03 12:48:34;;;;;;;0.20;0.00;;;;;;;;;;4934237;28;20039;-87
2024/01/03 12:51:06;;;;;;;0.20;0.10;;;;;;;;;;4947298;28;20061;-87
2024/01/03 12:53:32;;;;;;;0.20;0.10;;;;;;;;;;4959605;28;20035;-83
2024/01/03 12:56:01;;;;;;;0.20;0.10;;;;;;;;;;4946907;28;20751;-87
2024/01/03 12:58:27;;;;;;;0.20;0.00;;;;;;;;;;4946036;28;20086;-88
2024/01/03 13:00:53;;;;;;;0.20;0.10;;;;;;;;;;4932586;28;20049;-83
2024/01/03 13:03:19;;;;;;;3.78;0.52;;;;;;;;;;4949404;28;20055;-88
2024/01/03 13:05:47;;;;;;;0.20;0.00;;;;;;;;;;4947888;28;20051;-86
2024/01/03 13:08:23;;;;;;;;;;;;;;;;;;;;;
2024/01/03 13:10:49;;;;;;;0.20;0.10;;;;;;;;;;4951659;28;20468;-86
2024/01/03 13:13:16;;;;;;;0.20;0.10;;;;;;;;;;4936617;28;20094;-83
2024/01/03 13:15:50;;;;;;;0.20;0.00;;;;;;;;;;4950380;28;20051;-87
2024/01/03 13:18:19;;;;;;;0.20;0.08;;;;;;;;;;4973805;28;20050;-88
2024/01/03 13:20:45;;;;;;;0.20;0.00;;;;;;;;;;4949978;28;20051;-85
2024/01/03 13:23:17;;;;;;;0.20;0.10;;;;;;;;;;4936759;28;20039;-85
2024/01/03 13:25:43;;;;;;;0.20;0.00;;;;;;;;;;4932508;28;20077;-88
2024/01/03 13:28:15;;;;;;;0.20;0.00;;;;;;;;;;4934626;28;20554;-86
2024/01/03 13:30:46;;;;;;;0.20;0.10;;;;;;;;;;4938838;28;20047;-87
2024/01/03 13:33:18;;;;;;;0.20;0.10;;;;;;;;;;4951711;28;20829;-88
2024/01/03 13:35:46;;;;;;;0.20;0.10;;;;;;;;;;4957582;28;20047;-89
2024/01/03 13:38:16;;;;;;;0.20;0.10;;;;;;;;;;4968232;28;20059;-86
2024/01/03 13:40:43;;;;;;;0.20;0.00;;;;;;;;;;4951264;28;20101;-84
2024/01/03 13:43:14;;;;;;;0.20;0.10;;;;;;;;;;4940091;28;20046;-86
2024/01/03 13:45:40;;;;;;;0.20;0.00;;;;;;;;;;4972060;28;20047;-86
2024/01/03 13:48:09;;;;;;;0.20;0.10;;;;;;;;;;4953006;28;20051;-87
2024/01/03 13:50:37;;;;;;;0.20;0.10;;;;;;;;;;4957689;28;20466;-87
2024/01/03 13:53:06;;;;;;;0.30;0.20;;;;;;;;;;4938876;28;20043;-86
2024/01/03 13:55:47;;;;;;;0.20;0.10;;;;;;;;;;4958682;28;20127;-87
2024/01/03 13:58:13;;;;;;;0.20;0.00;;;;;;;;;;4969358;28;20047;-86
2024/01/03 14:00:45;;;;;;;0.20;0.00;;;;;;;;;;4946731;28;20066;-85
2024/01/03 14:03:12;;;;;;;0.20;0.10;;;;;;;;;;4944391;28;20081;-86
2024/01/03 14:05:41;;;;;;;0.20;0.10;;;;;;;;;;4940125;28;20182;-88
2024/01/03 14:08:11;;;;;;;0.20;0.03;;;;;;;;;;4947795;28;20047;-87
2024/01/03 14:10:40;;;;;;;0.90;0.85;;;;;;;;;;4957080;28;20046;-85
2024/01/03 14:13:14;;;;;;;0.20;0.10;;;;;;;;;;4957582;28;20125;-85
2024/01/03 14:15:43;;;;;;;0.20;0.10;;;;;;;;;;4962901;28;20051;-90
2024/01/03 14:18:10;;;;;;;0.20;0.00;;;;;;;;;;4971118;28;20050;-87
2024/01/03 14:20:38;;;;;;;0.20;0.10;;;;;;;;;;4956989;28;20052;-87
2024/01/03 14:23:04;;;;;;;0.20;0.10;;;;;;;;;;4954223;28;20038;-86
2024/01/03 14:25:35;;;;;;;0.20;0.00;;;;;;;;;;4959310;28;20043;-85
2024/01/03 14:28:01;;;;;;;0.20;0.10;;;;;;;;;;4956942;28;20119;-87
2024/01/03 14:30:30;;;;;;;3.80;0.80;;;;;;;;;;4944325;28;20483;-87
2024/01/03 14:33:06;;;;;;;0.20;0.10;;;;;;;;;;4944243;28;20039;-86
2024/01/03 14:35:38;;;;;;;0.20;0.00;;;;;;;;;;4957023;28;20043;-87
2024/01/03 14:38:29;;;;;;;0.80;0.65;;;;;;;;;;4973502;28;20514;-86
2024/01/03 14:41:14;;;;;;;0.20;0.10;;;;;;;;;;4943869;28;20129;-84
2024/01/03 14:43:59;;;;;;;0.20;0.10;;;;;;;;;;4937430;28;20078;-88
2024/01/03 14:46:29;;;;;;;0.20;0.10;;;;;;;;;;4957706;28;20141;-85
2024/01/03 14:48:57;;;;;;;0.20;0.00;;;;;;;;;;4937718;28;20551;-86
2024/01/03 14:51:29;;;;;;;0.20;0.00;;;;;;;;;;4936700;28;20054;-87
2024/01/03 14:54:06;;;;;;;;;;;;;;;;;;;;;
2024/01/03 14:57:11;;;;;;;0.20;0.00;;;;;;;;;;4952113;28;20050;-85
2024/01/03 14:59:43;;;;;;;0.20;0.10;;;;;;;;;;4948294;28;20055;-88
2024/01/03 15:02:12;;;;;;;0.20;0.00;;;;;;;;;;4960953;28;20579;-87